sensor_id;sensor_type;location;lat;lon;timestamp;pressure;altitude;pressure_sealevel;temperature;humidity
43804;BME280;29430;52.924;-2.388;2023-08-06T00:00:53;99114.97;;;10.48;100.00
43804;BME280;29430;52.924;-2.388;2023-08-06T00:05:45;99119.06;;;10.38;100.00
43804;BME280;29430;52.924;-2.388;2023-08-06T00:10:39;99123.91;;;10.36;100.00
43804;BME280;29430;52.924;-2.388;2023-08-06T00:15:31;99123.06;;;10.36;100.00
43804;BME280;29430;52.924;-2.388;2023-08-06T00:20:23;99129.78;;;10.33;100.00
43804;BME280;29430;52.924;-2.388;2023-08-06T00:25:15;99144.34;;;10.32;100.00
43804;BME280;29430;52.924;-2.388;2023-08-06T00:30:07;99141.53;;;10.27;100.00
43804;BME280;29430;52.924;-2.388;2023-08-06T00:34:58;99147.41;;;10.24;100.00
43804;BME280;29430;52.924;-2.388;2023-08-06T00:39:50;99138.66;;;10.22;100.00
43804;BME280;29430;52.924;-2.388;2023-08-06T00:44:42;99146.88;;;10.15;100.00
43804;BME280;29430;52.924;-2.388;2023-08-06T00:49:35;99156.06;;;10.14;100.00
43804;BME280;29430;52.924;-2.388;2023-08-06T00:54:27;99157.38;;;10.12;100.00
43804;BME280;29430;52.924;-2.388;2023-08-06T00:59:20;99162.16;;;10.10;100.00
43804;BME280;29430;52.924;-2.388;2023-08-06T01:04:12;99157.44;;;10.05;100.00
43804;BME280;29430;52.924;-2.388;2023-08-06T01:14:19;99172.41;;;10.08;100.00
43804;BME280;29430;52.924;-2.388;2023-08-06T01:19:18;99167.44;;;10.04;100.00
43804;BME280;29430;52.924;-2.388;2023-08-06T01:24:10;99173.63;;;10.12;100.00
43804;BME280;29430;52.924;-2.388;2023-08-06T01:34:22;99175.53;;;10.23;100.00
43804;BME280;29430;52.924;-2.388;2023-08-06T01:39:15;99180.28;;;10.28;100.00
43804;BME280;29430;52.924;-2.388;2023-08-06T01:44:07;99176.53;;;10.29;100.00
43804;BME280;29430;52.924;-2.388;2023-08-06T01:48:58;99184.19;;;10.32;100.00
43804;BME280;29430;52.924;-2.388;2023-08-06T01:53:50;99178.56;;;10.33;100.00
43804;BME280;29430;52.924;-2.388;2023-08-06T01:58:42;99187.31;;;10.35;100.00
43804;BME280;29430;52.924;-2.388;2023-08-06T02:03:34;99185.41;;;10.36;100.00
43804;BME280;29430;52.924;-2.388;2023-08-06T02:08:27;99195.56;;;10.41;100.00
43804;BME280;29430;52.924;-2.388;2023-08-06T02:13:18;99186.38;;;10.42;100.00
43804;BME280;29430;52.924;-2.388;2023-08-06T02:18:10;99189.91;;;10.42;100.00
43804;BME280;29430;52.924;-2.388;2023-08-06T02:23:02;99198.28;;;10.41;100.00
43804;BME280;29430;52.924;-2.388;2023-08-06T02:27:54;99196.41;;;10.41;100.00
43804;BME280;29430;52.924;-2.388;2023-08-06T02:32:45;99199.94;;;10.42;100.00
43804;BME280;29430;52.924;-2.388;2023-08-06T02:37:37;99197.13;;;10.48;100.00
43804;BME280;29430;52.924;-2.388;2023-08-06T02:42:29;99187.72;;;10.51;100.00
43804;BME280;29430;52.924;-2.388;2023-08-06T02:47:21;99191.97;;;10.59;100.00
43804;BME280;29430;52.924;-2.388;2023-08-06T02:52:12;99188.56;;;10.63;100.00
43804;BME280;29430;52.924;-2.388;2023-08-06T02:57:05;99200.13;;;10.70;100.00
43804;BME280;29430;52.924;-2.388;2023-08-06T03:01:57;99193.19;;;10.74;100.00
43804;BME280;29430;52.924;-2.388;2023-08-06T03:06:50;99200.63;;;10.79;100.00
43804;BME280;29430;52.924;-2.388;2023-08-06T03:11:42;99205.38;;;10.84;100.00
43804;BME280;29430;52.924;-2.388;2023-08-06T03:16:34;99198.19;;;10.89;100.00
43804;BME280;29430;52.924;-2.388;2023-08-06T03:21:26;99195.84;;;10.93;100.00
43804;BME280;29430;52.924;-2.388;2023-08-06T03:26:18;99185.34;;;10.97;100.00
43804;BME280;29430;52.924;-2.388;2023-08-06T03:31:10;99186.75;;;10.99;100.00
43804;BME280;29430;52.924;-2.388;2023-08-06T03:36:02;99191.50;;;11.04;100.00
43804;BME280;29430;52.924;-2.388;2023-08-06T03:40:54;99184.53;;;11.08;100.00
43804;BME280;29430;52.924;-2.388;2023-08-06T03:45:46;99193.28;;;11.10;100.00
43804;BME280;29430;52.924;-2.388;2023-08-06T03:50:37;99186.31;;;11.14;100.00
43804;BME280;29430;52.924;-2.388;2023-08-06T03:55:30;99177.34;;;11.14;100.00
43804;BME280;29430;52.924;-2.388;2023-08-06T04:00:22;99185.38;;;11.20;100.00
43804;BME280;29430;52.924;-2.388;2023-08-06T04:05:14;99188.91;;;11.21;100.00
43804;BME280;29430;52.924;-2.388;2023-08-06T04:10:06;99190.94;;;11.25;100.00
43804;BME280;29430;52.924;-2.388;2023-08-06T04:14:59;99199.88;;;11.26;100.00
43804;BME280;29430;52.924;-2.388;2023-08-06T04:19:53;99206.75;;;11.28;100.00
43804;BME280;29430;52.924;-2.388;2023-08-06T04:24:45;99212.16;;;11.28;100.00
43804;BME280;29430;52.924;-2.388;2023-08-06T04:29:37;99213.00;;;11.29;100.00
43804;BME280;29430;52.924;-2.388;2023-08-06T04:34:29;99219.25;;;11.29;100.00
43804;BME280;29430;52.924;-2.388;2023-08-06T04:39:21;99219.84;;;11.32;100.00
43804;BME280;29430;52.924;-2.388;2023-08-06T04:44:12;99221.97;;;11.29;100.00
43804;BME280;29430;52.924;-2.388;2023-08-06T04:49:04;99224.69;;;11.29;100.00
43804;BME280;29430;52.924;-2.388;2023-08-06T04:53:57;99230.94;;;11.30;100.00
43804;BME280;29430;52.924;-2.388;2023-08-06T04:58:49;99241.81;;;11.30;100.00
43804;BME280;29430;52.924;-2.388;2023-08-06T05:03:41;99247.59;;;11.34;100.00
43804;BME280;29430;52.924;-2.388;2023-08-06T05:08:32;99247.59;;;11.34;100.00
43804;BME280;29430;52.924;-2.388;2023-08-06T05:13:24;99245.25;;;11.37;100.00
43804;BME280;29430;52.924;-2.388;2023-08-06T05:18:16;99255.63;;;11.40;100.00
43804;BME280;29430;52.924;-2.388;2023-08-06T05:23:08;99251.84;;;11.41;100.00
43804;BME280;29430;52.924;-2.388;2023-08-06T05:28:00;99255.16;;;11.43;100.00
43804;BME280;29430;52.924;-2.388;2023-08-06T05:32:53;99268.03;;;11.48;100.00
43804;BME280;29430;52.924;-2.388;2023-08-06T05:37:45;99273.81;;;11.52;100.00
43804;BME280;29430;52.924;-2.388;2023-08-06T05:42:36;99270.97;;;11.58;100.00
43804;BME280;29430;52.924;-2.388;2023-08-06T05:47:28;99275.81;;;11.80;100.00
43804;BME280;29430;52.924;-2.388;2023-08-06T05:52:20;99274.78;;;12.16;100.00
43804;BME280;29430;52.924;-2.388;2023-08-06T05:57:12;99275.78;;;12.39;100.00
43804;BME280;29430;52.924;-2.388;2023-08-06T06:02:04;99282.69;;;12.59;100.00
43804;BME280;29430;52.924;-2.388;2023-08-06T06:06:55;99283.66;;;12.93;100.00
43804;BME280;29430;52.924;-2.388;2023-08-06T06:11:47;99291.25;;;13.37;100.00
43804;BME280;29430;52.924;-2.388;2023-08-06T06:16:41;99285.06;;;13.58;100.00
43804;BME280;29430;52.924;-2.388;2023-08-06T06:21:33;99293.44;;;13.91;100.00
43804;BME280;29430;52.924;-2.388;2023-08-06T06:26:25;99293.81;;;14.39;100.00
43804;BME280;29430;52.924;-2.388;2023-08-06T06:31:16;99304.28;;;14.47;100.00
43804;BME280;29430;52.924;-2.388;2023-08-06T06:36:08;99299.44;;;14.49;100.00
43804;BME280;29430;52.924;-2.388;2023-08-06T06:41:01;99310.91;;;14.51;100.00
43804;BME280;29430;52.924;-2.388;2023-08-06T06:45:58;99307.72;;;14.37;100.00
43804;BME280;29430;52.924;-2.388;2023-08-06T06:50:50;99311.16;;;14.27;100.00
43804;BME280;29430;52.924;-2.388;2023-08-06T06:55:42;99307.31;;;14.28;100.00
43804;BME280;29430;52.924;-2.388;2023-08-06T07:00:36;99320.03;;;14.40;100.00
43804;BME280;29430;52.924;-2.388;2023-08-06T07:05:28;99325.50;;;14.40;100.00
43804;BME280;29430;52.924;-2.388;2023-08-06T07:10:20;99333.09;;;14.38;100.00
43804;BME280;29430;52.924;-2.388;2023-08-06T07:15:12;99337.88;;;14.47;100.00
43804;BME280;29430;52.924;-2.388;2023-08-06T07:20:04;99334.91;;;14.49;100.00
43804;BME280;29430;52.924;-2.388;2023-08-06T07:24:57;99343.34;;;14.47;100.00
43804;BME280;29430;52.924;-2.388;2023-08-06T07:29:49;99344.25;;;14.36;100.00
43804;BME280;29430;52.924;-2.388;2023-08-06T07:34:41;99341.22;;;14.32;100.00
43804;BME280;29430;52.924;-2.388;2023-08-06T07:39:33;99351.56;;;14.30;100.00
43804;BME280;29430;52.924;-2.388;2023-08-06T07:44:25;99344.47;;;14.12;100.00
43804;BME280;29430;52.924;-2.388;2023-08-06T07:49:16;99346.22;;;14.02;100.00
43804;BME280;29430;52.924;-2.388;2023-08-06T07:54:08;99358.69;;;13.97;100.00
43804;BME280;29430;52.924;-2.388;2023-08-06T07:59:00;99353.50;;;13.96;100.00
43804;BME280;29430;52.924;-2.388;2023-08-06T08:03:51;99355.91;;;13.92;100.00
43804;BME280;29430;52.924;-2.388;2023-08-06T08:08:43;99354.66;;;14.00;100.00
43804;BME280;29430;52.924;-2.388;2023-08-06T08:13:35;99361.56;;;14.25;100.00
43804;BME280;29430;52.924;-2.388;2023-08-06T08:18:27;99358.16;;;14.35;100.00
43804;BME280;29430;52.924;-2.388;2023-08-06T08:23:19;99348.25;;;14.28;100.00
43804;BME280;29430;52.924;-2.388;2023-08-06T08:28:10;99358.34;;;14.28;100.00
43804;BME280;29430;52.924;-2.388;2023-08-06T08:33:02;99365.03;;;14.37;100.00
43804;BME280;29430;52.924;-2.388;2023-08-06T08:37:54;99362.03;;;14.39;100.00
43804;BME280;29430;52.924;-2.388;2023-08-06T08:42:46;99358.25;;;14.40;100.00
43804;BME280;29430;52.924;-2.388;2023-08-06T08:47:40;99369.16;;;14.40;100.00
43804;BME280;29430;52.924;-2.388;2023-08-06T08:52:33;99372.75;;;14.45;100.00
43804;BME280;29430;52.924;-2.388;2023-08-06T08:57:26;99374.56;;;14.57;100.00
43804;BME280;29430;52.924;-2.388;2023-08-06T09:02:18;99384.31;;;14.70;100.00
43804;BME280;29430;52.924;-2.388;2023-08-06T09:07:16;99389.28;;;14.73;100.00
43804;BME280;29430;52.924;-2.388;2023-08-06T09:12:12;99397.91;;;14.64;100.00
43804;BME280;29430;52.924;-2.388;2023-08-06T09:17:06;99393.22;;;14.43;100.00
43804;BME280;29430;52.924;-2.388;2023-08-06T09:21:58;99398.75;;;14.31;100.00
43804;BME280;29430;52.924;-2.388;2023-08-06T09:26:50;99394.97;;;14.32;100.00
43804;BME280;29430;52.924;-2.388;2023-08-06T09:31:47;99398.41;;;14.44;100.00
43804;BME280;29430;52.924;-2.388;2023-08-06T09:36:41;99389.53;;;14.54;100.00
43804;BME280;29430;52.924;-2.388;2023-08-06T09:41:33;99396.41;;;14.57;100.00
43804;BME280;29430;52.924;-2.388;2023-08-06T09:46:24;99401.53;;;14.53;100.00
43804;BME280;29430;52.924;-2.388;2023-08-06T09:51:16;99417.09;;;14.53;100.00
43804;BME280;29430;52.924;-2.388;2023-08-06T09:56:09;99424.72;;;14.50;100.00
43804;BME280;29430;52.924;-2.388;2023-08-06T10:01:02;99420.13;;;14.56;100.00
43804;BME280;29430;52.924;-2.388;2023-08-06T10:05:55;99423.03;;;14.66;100.00
43804;BME280;29430;52.924;-2.388;2023-08-06T10:10:48;99420.06;;;14.90;100.00
43804;BME280;29430;52.924;-2.388;2023-08-06T10:15:44;99417.44;;;15.22;100.00
43804;BME280;29430;52.924;-2.388;2023-08-06T10:20:38;99427.59;;;15.49;100.00
43804;BME280;29430;52.924;-2.388;2023-08-06T10:25:32;99439.72;;;15.86;95.14
43804;BME280;29430;52.924;-2.388;2023-08-06T10:30:26;99432.78;;;16.05;96.68
43804;BME280;29430;52.924;-2.388;2023-08-06T10:40:29;99418.44;;;17.26;100.00
43804;BME280;29430;52.924;-2.388;2023-08-06T10:45:22;99406.78;;;18.08;90.48
43804;BME280;29430;52.924;-2.388;2023-08-06T10:50:20;99440.25;;;18.05;85.01
43804;BME280;29430;52.924;-2.388;2023-08-06T10:55:12;99435.81;;;17.68;85.14
43804;BME280;29430;52.924;-2.388;2023-08-06T11:00:05;99436.84;;;17.41;87.01
43804;BME280;29430;52.924;-2.388;2023-08-06T11:05:08;99449.69;;;17.30;86.59
43804;BME280;29430;52.924;-2.388;2023-08-06T11:10:04;99449.47;;;16.84;87.67
43804;BME280;29430;52.924;-2.388;2023-08-06T11:14:56;99453.28;;;16.40;91.51
43804;BME280;29430;52.924;-2.388;2023-08-06T11:19:48;99451.94;;;16.43;91.88
43804;BME280;29430;52.924;-2.388;2023-08-06T11:24:40;99451.03;;;16.27;91.87
43804;BME280;29430;52.924;-2.388;2023-08-06T11:29:37;99460.66;;;16.02;91.74
43804;BME280;29430;52.924;-2.388;2023-08-06T11:34:29;99466.38;;;15.73;92.31
43804;BME280;29430;52.924;-2.388;2023-08-06T11:39:21;99461.00;;;15.56;90.78
43804;BME280;29430;52.924;-2.388;2023-08-06T11:44:13;99447.44;;;15.67;92.48
43804;BME280;29430;52.924;-2.388;2023-08-06T11:49:08;99458.31;;;15.84;94.81
43804;BME280;29430;52.924;-2.388;2023-08-06T11:54:00;99454.59;;;16.00;94.71
43804;BME280;29430;52.924;-2.388;2023-08-06T11:58:52;99450.69;;;16.23;97.33
43804;BME280;29430;52.924;-2.388;2023-08-06T12:03:44;99460.34;;;16.31;90.92
43804;BME280;29430;52.924;-2.388;2023-08-06T12:08:35;99451.22;;;16.20;91.89
43804;BME280;29430;52.924;-2.388;2023-08-06T12:13:29;99448.34;;;16.37;93.21
43804;BME280;29430;52.924;-2.388;2023-08-06T12:18:21;99456.28;;;16.76;93.36
43804;BME280;29430;52.924;-2.388;2023-08-06T12:23:13;99460.56;;;17.10;87.65
43804;BME280;29430;52.924;-2.388;2023-08-06T12:28:07;99461.34;;;17.00;87.32
43804;BME280;29430;52.924;-2.388;2023-08-06T12:32:59;99472.78;;;16.87;88.53
43804;BME280;29430;52.924;-2.388;2023-08-06T12:37:51;99465.41;;;16.87;88.59
43804;BME280;29430;52.924;-2.388;2023-08-06T12:42:46;99458.22;;;16.81;87.84
43804;BME280;29430;52.924;-2.388;2023-08-06T12:47:37;99450.34;;;16.90;92.70
43804;BME280;29430;52.924;-2.388;2023-08-06T12:52:29;99456.28;;;17.29;92.17
43804;BME280;29430;52.924;-2.388;2023-08-06T12:57:21;99455.78;;;17.43;89.41
43804;BME280;29430;52.924;-2.388;2023-08-06T13:02:13;99454.69;;;17.49;89.68
43804;BME280;29430;52.924;-2.388;2023-08-06T13:07:04;99450.91;;;17.70;89.09
43804;BME280;29430;52.924;-2.388;2023-08-06T13:11:58;99456.38;;;17.76;85.20
43804;BME280;29430;52.924;-2.388;2023-08-06T13:16:51;99458.84;;;17.82;82.34
43804;BME280;29430;52.924;-2.388;2023-08-06T13:26:38;99456.97;;;17.93;74.71
43804;BME280;29430;52.924;-2.388;2023-08-06T13:31:30;99448.44;;;17.79;73.64
43804;BME280;29430;52.924;-2.388;2023-08-06T13:36:22;99462.16;;;17.79;72.56
43804;BME280;29430;52.924;-2.388;2023-08-06T13:41:14;99456.13;;;17.82;76.40
43804;BME280;29430;52.924;-2.388;2023-08-06T13:46:06;99455.06;;;17.88;73.19
43804;BME280;29430;52.924;-2.388;2023-08-06T13:50:58;99457.56;;;17.95;72.44
43804;BME280;29430;52.924;-2.388;2023-08-06T13:55:49;99458.84;;;17.82;71.63
43804;BME280;29430;52.924;-2.388;2023-08-06T14:00:41;99467.91;;;17.67;72.62
43804;BME280;29430;52.924;-2.388;2023-08-06T14:05:33;99468.72;;;17.63;69.29
43804;BME280;29430;52.924;-2.388;2023-08-06T14:10:24;99476.09;;;17.57;70.23
43804;BME280;29430;52.924;-2.388;2023-08-06T14:15:16;99465.97;;;17.73;73.40
43804;BME280;29430;52.924;-2.388;2023-08-06T14:20:08;99469.09;;;18.07;73.05
43804;BME280;29430;52.924;-2.388;2023-08-06T14:25:04;99469.38;;;18.37;70.80
43804;BME280;29430;52.924;-2.388;2023-08-06T14:29:56;99479.22;;;18.38;67.42
43804;BME280;29430;52.924;-2.388;2023-08-06T14:34:47;99470.44;;;18.41;65.53
43804;BME280;29430;52.924;-2.388;2023-08-06T14:39:39;99471.00;;;18.48;69.48
43804;BME280;29430;52.924;-2.388;2023-08-06T14:44:31;99479.22;;;18.48;62.94
43804;BME280;29430;52.924;-2.388;2023-08-06T14:49:23;99486.38;;;18.44;65.79
43804;BME280;29430;52.924;-2.388;2023-08-06T14:54:15;99492.13;;;18.42;62.34
43804;BME280;29430;52.924;-2.388;2023-08-06T14:59:06;99495.16;;;18.41;65.33
43804;BME280;29430;52.924;-2.388;2023-08-06T15:03:58;99494.91;;;18.32;62.72
43804;BME280;29430;52.924;-2.388;2023-08-06T15:08:50;99500.09;;;18.29;65.92
43804;BME280;29430;52.924;-2.388;2023-08-06T15:13:42;99496.81;;;18.27;63.21
43804;BME280;29430;52.924;-2.388;2023-08-06T15:18:33;99511.09;;;18.23;61.68
43804;BME280;29430;52.924;-2.388;2023-08-06T15:23:25;99506.41;;;18.19;60.17
43804;BME280;29430;52.924;-2.388;2023-08-06T15:28:17;99511.66;;;18.15;59.42
43804;BME280;29430;52.924;-2.388;2023-08-06T15:33:08;99506.41;;;18.08;61.14
43804;BME280;29430;52.924;-2.388;2023-08-06T15:38:00;99518.22;;;18.09;62.44
43804;BME280;29430;52.924;-2.388;2023-08-06T15:42:52;99519.31;;;18.08;63.02
43804;BME280;29430;52.924;-2.388;2023-08-06T15:47:43;99522.06;;;18.08;63.76
43804;BME280;29430;52.924;-2.388;2023-08-06T15:52:35;99535.78;;;18.03;63.25
43804;BME280;29430;52.924;-2.388;2023-08-06T15:57:27;99525.03;;;17.96;64.22
43804;BME280;29430;52.924;-2.388;2023-08-06T16:02:19;99527.25;;;17.94;62.35
43804;BME280;29430;52.924;-2.388;2023-08-06T16:07:11;99530.00;;;17.89;61.77
43804;BME280;29430;52.924;-2.388;2023-08-06T16:12:02;99529.09;;;17.83;63.19
43804;BME280;29430;52.924;-2.388;2023-08-06T16:16:55;99529.66;;;17.85;62.47
43804;BME280;29430;52.924;-2.388;2023-08-06T16:21:47;99536.75;;;17.76;64.45
43804;BME280;29430;52.924;-2.388;2023-08-06T16:26:39;99536.75;;;17.76;66.35
43804;BME280;29430;52.924;-2.388;2023-08-06T16:31:31;99525.25;;;17.79;65.50
43804;BME280;29430;52.924;-2.388;2023-08-06T16:36:22;99529.09;;;17.78;63.87
43804;BME280;29430;52.924;-2.388;2023-08-06T16:41:14;99530.72;;;17.74;63.78
43804;BME280;29430;52.924;-2.388;2023-08-06T16:46:06;99533.47;;;17.74;65.32
43804;BME280;29430;52.924;-2.388;2023-08-06T16:50:59;99532.09;;;17.71;65.00
43804;BME280;29430;52.924;-2.388;2023-08-06T16:55:52;99536.75;;;17.71;66.50
43804;BME280;29430;52.924;-2.388;2023-08-06T17:00:49;99538.94;;;17.69;66.18
43804;BME280;29430;52.924;-2.388;2023-08-06T17:05:42;99544.44;;;17.69;66.76
43804;BME280;29430;52.924;-2.388;2023-08-06T17:10:34;99549.88;;;17.64;65.47
43804;BME280;29430;52.924;-2.388;2023-08-06T17:15:26;99540.84;;;17.58;66.31
43804;BME280;29430;52.924;-2.388;2023-08-06T17:20:18;99538.31;;;17.46;65.25
43804;BME280;29430;52.924;-2.388;2023-08-06T17:25:09;99558.56;;;17.40;64.46
43804;BME280;29430;52.924;-2.388;2023-08-06T17:30:01;99563.19;;;17.34;65.92
43804;BME280;29430;52.924;-2.388;2023-08-06T17:34:53;99561.56;;;17.33;66.44
43804;BME280;29430;52.924;-2.388;2023-08-06T17:39:45;99571.66;;;17.28;66.00
43804;BME280;29430;52.924;-2.388;2023-08-06T17:44:38;99571.91;;;17.21;66.05
43804;BME280;29430;52.924;-2.388;2023-08-06T17:49:34;99571.06;;;17.15;65.94
43804;BME280;29430;52.924;-2.388;2023-08-06T17:54:26;99576.78;;;17.09;66.42
43804;BME280;29430;52.924;-2.388;2023-08-06T17:59:18;99586.31;;;17.01;65.67
43804;BME280;29430;52.924;-2.388;2023-08-06T18:04:12;99579.97;;;16.95;67.27
43804;BME280;29430;52.924;-2.388;2023-08-06T18:09:05;99588.97;;;16.91;66.59
43804;BME280;29430;52.924;-2.388;2023-08-06T18:13:57;99588.59;;;16.82;66.42
43804;BME280;29430;52.924;-2.388;2023-08-06T18:18:48;99593.22;;;16.76;68.04
43804;BME280;29430;52.924;-2.388;2023-08-06T18:23:44;99588.28;;;16.73;67.82
43804;BME280;29430;52.924;-2.388;2023-08-06T18:28:35;99591.53;;;16.70;67.52
43804;BME280;29430;52.924;-2.388;2023-08-06T18:33:27;99590.09;;;16.62;68.26
43804;BME280;29430;52.924;-2.388;2023-08-06T18:38:20;99582.34;;;16.54;69.45
43804;BME280;29430;52.924;-2.388;2023-08-06T18:43:11;99589.19;;;16.52;70.10
43804;BME280;29430;52.924;-2.388;2023-08-06T18:48:04;99596.22;;;16.42;71.93
43804;BME280;29430;52.924;-2.388;2023-08-06T18:52:56;99592.31;;;16.33;73.39
43804;BME280;29430;52.924;-2.388;2023-08-06T18:57:48;99595.22;;;16.26;74.53
43804;BME280;29430;52.924;-2.388;2023-08-06T19:02:39;99606.94;;;16.22;76.09
43804;BME280;29430;52.924;-2.388;2023-08-06T19:07:31;99606.34;;;16.15;76.76
43804;BME280;29430;52.924;-2.388;2023-08-06T19:12:23;99600.25;;;16.07;77.56
43804;BME280;29430;52.924;-2.388;2023-08-06T19:17:15;99611.13;;;16.02;77.76
43804;BME280;29430;52.924;-2.388;2023-08-06T19:22:06;99611.81;;;15.92;78.20
43804;BME280;29430;52.924;-2.388;2023-08-06T19:26:58;99611.47;;;15.84;78.83
43804;BME280;29430;52.924;-2.388;2023-08-06T19:31:51;99617.13;;;15.77;79.35
43804;BME280;29430;52.924;-2.388;2023-08-06T19:36:46;99616.97;;;15.67;80.03
43804;BME280;29430;52.924;-2.388;2023-08-06T19:41:38;99614.34;;;15.55;79.88
43804;BME280;29430;52.924;-2.388;2023-08-06T19:46:29;99615.88;;;15.46;80.91
43804;BME280;29430;52.924;-2.388;2023-08-06T19:51:21;99629.16;;;15.37;80.92
43804;BME280;29430;52.924;-2.388;2023-08-06T19:56:13;99629.81;;;15.27;81.63
43804;BME280;29430;52.924;-2.388;2023-08-06T20:01:06;99626.94;;;15.17;81.48
43804;BME280;29430;52.924;-2.388;2023-08-06T20:06:00;99639.94;;;15.10;82.17
43804;BME280;29430;52.924;-2.388;2023-08-06T20:10:55;99640.13;;;15.03;82.45
43804;BME280;29430;52.924;-2.388;2023-08-06T20:15:48;99636.72;;;14.96;82.34
43804;BME280;29430;52.924;-2.388;2023-08-06T20:20:41;99636.31;;;14.87;82.77
43804;BME280;29430;52.924;-2.388;2023-08-06T20:25:33;99649.06;;;14.81;82.71
43804;BME280;29430;52.924;-2.388;2023-08-06T20:30:25;99645.91;;;14.73;83.63
43804;BME280;29430;52.924;-2.388;2023-08-06T20:35:16;99646.56;;;14.63;83.25
43804;BME280;29430;52.924;-2.388;2023-08-06T20:40:09;99654.28;;;14.54;84.53
43804;BME280;29430;52.924;-2.388;2023-08-06T20:45:01;99656.00;;;14.43;84.23
43804;BME280;29430;52.924;-2.388;2023-08-06T20:49:52;99647.84;;;14.31;84.34
43804;BME280;29430;52.924;-2.388;2023-08-06T20:54:44;99656.19;;;14.25;84.80
43804;BME280;29430;52.924;-2.388;2023-08-06T20:59:36;99660.38;;;14.15;84.77
43804;BME280;29430;52.924;-2.388;2023-08-06T21:04:27;99654.47;;;14.07;85.72
43804;BME280;29430;52.924;-2.388;2023-08-06T21:09:19;99664.81;;;14.05;85.71
43804;BME280;29430;52.924;-2.388;2023-08-06T21:14:12;99661.38;;;13.97;86.30
43804;BME280;29430;52.924;-2.388;2023-08-06T21:19:04;99664.84;;;13.93;86.85
43804;BME280;29430;52.924;-2.388;2023-08-06T21:23:56;99676.94;;;13.85;87.26
43804;BME280;29430;52.924;-2.388;2023-08-06T21:28:48;99670.81;;;13.78;87.58
43804;BME280;29430;52.924;-2.388;2023-08-06T21:33:41;99676.75;;;13.75;88.46
43804;BME280;29430;52.924;-2.388;2023-08-06T21:38:35;99673.31;;;13.68;88.68
43804;BME280;29430;52.924;-2.388;2023-08-06T21:43:28;99680.91;;;13.66;88.77
43804;BME280;29430;52.924;-2.388;2023-08-06T21:48:19;99679.13;;;13.59;89.35
43804;BME280;29430;52.924;-2.388;2023-08-06T21:53:11;99680.31;;;13.52;89.72
43804;BME280;29430;52.924;-2.388;2023-08-06T21:58:03;99679.84;;;13.43;90.08
43804;BME280;29430;52.924;-2.388;2023-08-06T22:02:54;99689.06;;;13.42;90.10
43804;BME280;29430;52.924;-2.388;2023-08-06T22:07:46;99672.63;;;13.37;90.49
43804;BME280;29430;52.924;-2.388;2023-08-06T22:12:38;99670.38;;;13.34;90.95
43804;BME280;29430;52.924;-2.388;2023-08-06T22:17:30;99663.69;;;13.30;91.24
43804;BME280;29430;52.924;-2.388;2023-08-06T22:22:22;99663.34;;;13.26;91.75
43804;BME280;29430;52.924;-2.388;2023-08-06T22:27:13;99665.50;;;13.24;92.28
43804;BME280;29430;52.924;-2.388;2023-08-06T22:32:05;99666.56;;;13.23;92.63
43804;BME280;29430;52.924;-2.388;2023-08-06T22:36:57;99665.72;;;13.22;92.96
43804;BME280;29430;52.924;-2.388;2023-08-06T22:41:49;99664.53;;;13.18;93.18
43804;BME280;29430;52.924;-2.388;2023-08-06T22:46:40;99672.34;;;13.15;93.98
43804;BME280;29430;52.924;-2.388;2023-08-06T22:51:32;99669.72;;;13.08;93.54
43804;BME280;29430;52.924;-2.388;2023-08-06T22:56:24;99675.88;;;13.03;93.59
43804;BME280;29430;52.924;-2.388;2023-08-06T23:01:15;99682.03;;;12.99;94.25
43804;BME280;29430;52.924;-2.388;2023-08-06T23:06:07;99680.88;;;12.95;94.07
43804;BME280;29430;52.924;-2.388;2023-08-06T23:11:00;99678.47;;;12.86;94.16
43804;BME280;29430;52.924;-2.388;2023-08-06T23:15:54;99684.00;;;12.80;94.88
43804;BME280;29430;52.924;-2.388;2023-08-06T23:20:46;99680.94;;;12.76;95.11
43804;BME280;29430;52.924;-2.388;2023-08-06T23:25:38;99678.44;;;12.75;94.98
43804;BME280;29430;52.924;-2.388;2023-08-06T23:30:29;99674.16;;;12.67;94.87
43804;BME280;29430;52.924;-2.388;2023-08-06T23:35:21;99676.97;;;12.60;95.30
43804;BME280;29430;52.924;-2.388;2023-08-06T23:40:13;99674.47;;;12.59;95.47
43804;BME280;29430;52.924;-2.388;2023-08-06T23:45:05;99671.28;;;12.50;95.96
43804;BME280;29430;52.924;-2.388;2023-08-06T23:49:57;99679.06;;;12.46;96.26
43804;BME280;29430;52.924;-2.388;2023-08-06T23:54:48;99685.81;;;12.44;96.65
43804;BME280;29430;52.924;-2.388;2023-08-06T23:59:40;99679.41;;;12.38;96.61
